Time;durP1;ratioP1;P1;durP2;ratioP2;P2;SDS_P1;SDS_P2;PMS_P1;PMS_P2;Temp;Humidity;BMP_temperature;BMP_pressure;BME280_temperature;BME280_humidity;BME280_pressure;Samples;Min_cycle;Max_cycle;Signal;HPM_P1;HPM_P2
2024/02/07 00:01:24;;;;;;;4.50;0.90;;;6.40;96.10;;;;;;5074672;28;20029;-41
2024/02/07 00:03:49;;;;;;;3.72;0.80;;;6.40;96.10;;;;;;5074503;28;20584;-39
2024/02/07 00:06:16;;;;;;;2.75;0.93;;;6.40;96.20;;;;;;5074669;28;20374;-39
2024/02/07 00:08:42;;;;;;;1.90;0.60;;;6.40;96.30;;;;;;5074795;28;20032;-40
2024/02/07 00:11:08;;;;;;;3.05;0.90;;;6.40;96.30;;;;;;5074754;28;20024;-39
2024/02/07 00:13:33;;;;;;;2.45;0.80;;;6.50;96.30;;;;;;5074398;28;20020;-40
2024/02/07 00:15:59;;;;;;;3.63;0.95;;;6.50;96.30;;;;;;5074618;28;20025;-38
2024/02/07 00:18:25;;;;;;;4.95;1.00;;;6.50;96.30;;;;;;5074366;28;20028;-51
2024/02/07 00:20:51;;;;;;;5.60;0.80;;;6.50;96.20;;;;;;5074290;28;20032;-38
2024/02/07 00:23:17;;;;;;;3.15;0.80;;;6.50;96.40;;;;;;5074269;28;20035;-38
2024/02/07 00:25:43;;;;;;;4.13;0.80;;;6.50;96.10;;;;;;5074504;28;20021;-37
2024/02/07 00:28:09;;;;;;;2.78;0.70;;;6.50;96.20;;;;;;5074324;28;20118;-39
2024/02/07 00:30:35;;;;;;;5.07;0.63;;;6.60;96.30;;;;;;5074235;28;20525;-40
2024/02/07 00:33:02;;;;;;;4.05;0.80;;;6.60;96.30;;;;;;5073973;28;20271;-39
2024/02/07 00:35:27;;;;;;;3.63;0.80;;;6.70;96.40;;;;;;5073987;28;20045;-36
2024/02/07 00:37:53;;;;;;;4.18;0.90;;;6.80;96.30;;;;;;5074083;28;20043;-39
2024/02/07 00:40:19;;;;;;;4.20;0.90;;;6.80;96.10;;;;;;5073941;28;20099;-38
2024/02/07 00:42:46;;;;;;;3.10;0.73;;;6.80;96.20;;;;;;5073637;28;20415;-39
2024/02/07 00:45:12;;;;;;;3.22;0.75;;;6.90;96.20;;;;;;5074165;28;20017;-38
2024/02/07 00:47:37;;;;;;;2.78;0.90;;;7.00;96.20;;;;;;5073725;28;20123;-39
2024/02/07 00:50:03;;;;;;;2.72;0.70;;;7.00;96.10;;;;;;5073589;28;20029;-39
2024/02/07 00:52:29;;;;;;;2.70;0.70;;;7.00;96.00;;;;;;5072048;28;20033;-39
2024/02/07 00:54:54;;;;;;;5.85;0.93;;;7.00;96.00;;;;;;5073859;28;20059;-39
2024/02/07 00:57:20;;;;;;;4.22;0.80;;;7.00;96.00;;;;;;5073780;28;20025;-39
2024/02/07 00:59:45;;;;;;;5.78;1.00;;;7.00;96.00;;;;;;5072476;28;20021;-40
2024/02/07 01:02:11;;;;;;;2.50;0.80;;;7.00;96.10;;;;;;5073509;28;20032;-38
2024/02/07 01:04:36;;;;;;;3.22;0.90;;;7.00;96.00;;;;;;5073546;28;20055;-37
2024/02/07 01:07:02;;;;;;;4.20;0.98;;;7.00;96.00;;;;;;5073800;28;20020;-38
2024/02/07 01:09:29;;;;;;;5.30;0.90;;;7.10;96.00;;;;;;5073748;28;20021;-39
2024/02/07 01:11:55;;;;;;;6.70;0.80;;;7.00;95.90;;;;;;5073407;28;20107;-39
2024/02/07 01:14:21;;;;;;;4.90;0.85;;;7.00;96.00;;;;;;5073292;28;20056;-39
2024/02/07 01:16:46;;;;;;;5.88;1.15;;;7.00;95.90;;;;;;5073274;28;20017;-36
2024/02/07 01:19:12;;;;;;;3.83;0.75;;;7.00;96.00;;;;;;5073613;28;20139;-37
2024/02/07 01:21:37;;;;;;;4.63;1.10;;;6.90;95.80;;;;;;5073421;28;20028;-37
2024/02/07 01:24:06;;;;;;;3.60;0.90;;;6.90;95.80;;;;;;5073015;28;20481;-47
2024/02/07 01:26:33;;;;;;;3.08;0.70;;;6.90;95.80;;;;;;5073011;28;20035;-38
2024/02/07 01:28:59;;;;;;;4.18;1.10;;;6.90;96.10;;;;;;5073392;28;20508;-37
2024/02/07 01:31:25;;;;;;;4.55;0.90;;;6.90;95.70;;;;;;5072958;28;20062;-39
2024/02/07 01:33:50;;;;;;;1.83;0.82;;;6.90;95.80;;;;;;5072844;28;20033;-39
2024/02/07 01:36:17;;;;;;;3.92;0.85;;;6.90;95.80;;;;;;5073289;28;20042;-38
2024/02/07 01:38:42;;;;;;;4.68;0.73;;;6.90;95.80;;;;;;5073101;28;20025;-36
2024/02/07 01:41:08;;;;;;;4.78;0.70;;;6.80;95.70;;;;;;5073201;28;20346;-44
2024/02/07 01:43:34;;;;;;;3.00;1.00;;;6.80;95.80;;;;;;5072699;28;20384;-39
2024/02/07 01:46:00;;;;;;;6.40;1.10;;;6.80;96.00;;;;;;5072916;28;20017;-37
2024/02/07 01:48:27;;;;;;;3.78;1.02;;;6.70;95.70;;;;;;5072615;28;20099;-38
2024/02/07 01:50:54;;;;;;;9.20;1.27;;;6.70;95.80;;;;;;5072659;28;20132;-38
2024/02/07 01:53:21;;;;;;;3.58;0.70;;;6.70;95.80;;;;;;5072774;28;20016;-37
2024/02/07 01:55:51;;;;;;;3.60;1.02;;;6.80;95.90;;;;;;5071236;28;20040;-38
2024/02/07 01:58:17;;;;;;;2.05;0.75;;;6.80;95.80;;;;;;5072550;28;20073;-38
2024/02/07 02:00:43;;;;;;;3.42;1.13;;;6.80;95.80;;;;;;5072165;28;20024;-38
2024/02/07 02:03:09;;;;;;;5.38;0.80;;;6.80;95.80;;;;;;5071929;28;20443;-38
2024/02/07 02:05:34;;;;;;;4.88;1.10;;;6.80;95.70;;;;;;5072573;28;20099;-40
2024/02/07 02:08:04;;;;;;;5.20;1.02;;;6.70;95.70;;;;;;5072334;28;20444;-39
2024/02/07 02:10:30;;;;;;;5.82;1.10;;;6.70;95.70;;;;;;5072090;28;20032;-39
2024/02/07 02:12:56;;;;;;;5.63;1.20;;;6.70;95.70;;;;;;5072340;28;20465;-39
2024/02/07 02:15:23;;;;;;;3.50;1.02;;;6.60;95.60;;;;;;5072209;28;20017;-37
2024/02/07 02:17:50;;;;;;;5.82;1.20;;;6.60;95.70;;;;;;5072092;28;20032;-37
2024/02/07 02:20:17;;;;;;;6.93;1.05;;;6.70;95.80;;;;;;5072451;28;20472;-39
2024/02/07 02:23:07;;;;;;;6.47;1.33;;;6.70;95.70;;;;;;5070645;28;20036;-38
2024/02/07 02:25:51;;;;;;;5.05;1.20;;;6.60;95.50;;;;;;5071838;28;20021;-39
2024/02/07 02:28:57;;;;;;;4.75;1.10;;;6.50;95.50;;;;;;5071956;28;20036;-37
2024/02/07 02:31:24;;;;;;;3.33;0.90;;;6.50;95.60;;;;;;5072003;28;20111;-38
2024/02/07 02:33:56;;;;;;;3.38;1.15;;;6.40;95.60;;;;;;5072047;28;20020;-39
2024/02/07 02:36:23;;;;;;;4.60;1.15;;;6.40;95.60;;;;;;5070991;28;20051;-38
2024/02/07 02:38:50;;;;;;;1.73;0.90;;;6.40;95.70;;;;;;5072154;28;20020;-37
2024/02/07 02:41:20;;;;;;;2.92;0.90;;;6.40;95.90;;;;;;5072122;28;20108;-35
2024/02/07 02:43:46;;;;;;;6.25;1.30;;;6.40;95.80;;;;;;5071896;28;20029;-38
2024/02/07 02:46:12;;;;;;;6.82;0.98;;;6.40;95.70;;;;;;5072081;28;20046;-37
2024/02/07 02:48:39;;;;;;;3.47;0.95;;;6.50;95.70;;;;;;5071624;28;20055;-38
2024/02/07 02:51:04;;;;;;;3.80;1.08;;;6.50;95.70;;;;;;5071666;28;20028;-39
2024/02/07 02:53:32;;;;;;;3.33;1.20;;;6.40;95.70;;;;;;5071555;28;20036;-38
2024/02/07 02:55:58;;;;;;;6.13;1.13;;;6.50;95.70;;;;;;5072028;28;20047;-38
2024/02/07 02:58:29;;;;;;;5.93;1.05;;;6.40;95.60;;;;;;5071978;28;20489;-38
2024/02/07 03:00:56;;;;;;;4.05;1.10;;;6.40;95.30;;;;;;5070362;28;20172;-39
2024/02/07 03:03:22;;;;;;;5.07;1.27;;;6.20;95.20;;;;;;5070028;28;20115;-36
2024/02/07 03:05:58;;;;;;;8.15;1.40;;;6.10;94.90;;;;;;5071521;28;20039;-36
2024/02/07 03:08:39;;;;;;;6.80;1.05;;;5.90;95.10;;;;;;5071901;28;20427;-37
2024/02/07 03:11:11;;;;;;;7.25;1.15;;;5.80;95.20;;;;;;5071911;28;20020;-39
2024/02/07 03:13:37;;;;;;;5.72;1.15;;;5.70;95.30;;;;;;5070277;28;20095;-37
2024/02/07 03:16:08;;;;;;;4.88;0.95;;;5.60;95.40;;;;;;5075608;28;20012;-38
2024/02/07 03:18:35;;;;;;;5.18;1.08;;;5.60;95.60;;;;;;5076168;28;20048;-38
2024/02/07 03:21:06;;;;;;;4.07;0.80;;;5.70;95.70;;;;;;5075968;28;20350;-38
2024/02/07 03:23:33;;;;;;;3.30;0.70;;;5.70;95.80;;;;;;5075382;28;20496;-36
2024/02/07 03:26:00;;;;;;;5.18;0.85;;;5.80;95.70;;;;;;5075501;28;20024;-38
2024/02/07 03:28:26;;;;;;;4.70;1.00;;;5.80;95.60;;;;;;5075770;28;20024;-38
2024/02/07 03:30:52;;;;;;;4.25;0.95;;;5.80;95.60;;;;;;5075619;28;20517;-39
2024/02/07 03:33:17;;;;;;;6.20;1.00;;;5.80;95.70;;;;;;5075068;28;20041;-37
2024/02/07 03:35:43;;;;;;;5.50;1.27;;;5.80;95.50;;;;;;5075041;28;20052;-39
2024/02/07 03:38:08;;;;;;;6.95;0.93;;;5.70;95.40;;;;;;5075271;28;20095;-39
2024/02/07 03:40:34;;;;;;;2.58;0.90;;;5.70;95.50;;;;;;5075434;28;20024;-39
2024/02/07 03:43:00;;;;;;;6.15;1.50;;;5.60;95.50;;;;;;5074934;28;20100;-38
2024/02/07 03:45:28;;;;;;;6.10;0.90;;;5.70;95.60;;;;;;5075064;28;20036;-39
2024/02/07 03:47:54;;;;;;;3.58;1.00;;;5.60;95.50;;;;;;5074940;28;20111;-38
2024/02/07 03:50:25;;;;;;;5.05;0.80;;;5.60;95.50;;;;;;5075071;28;20056;-37
2024/02/07 03:52:51;;;;;;;6.97;1.10;;;5.60;95.50;;;;;;5074951;28;20032;-38
2024/02/07 03:55:17;;;;;;;5.03;1.10;;;5.60;95.50;;;;;;5075400;28;20047;-40
2024/02/07 03:57:43;;;;;;;6.53;0.95;;;5.60;95.60;;;;;;5074835;28;20044;-37
2024/02/07 04:00:10;;;;;;;9.57;1.38;;;5.60;95.60;;;;;;5075074;28;20499;-34
2024/02/07 04:02:46;;;;;;;3.22;0.77;;;5.60;95.60;;;;;;5074841;28;20028;-39
2024/02/07 04:05:12;;;;;;;4.75;1.00;;;5.70;95.60;;;;;;5074893;28;20029;-38
2024/02/07 04:07:38;;;;;;;3.78;0.80;;;5.70;95.60;;;;;;5074957;28;20020;-39
2024/02/07 04:10:05;;;;;;;4.38;0.90;;;5.80;95.70;;;;;;5074704;28;20035;-39
2024/02/07 05:17:32;;;;;;;3.35;0.80;;;5.90;95.40;;;;;;5073299;28;20033;-40
2024/02/07 05:19:58;;;;;;;7.88;1.50;;;5.90;95.40;;;;;;5073363;28;20189;-39
2024/02/07 05:22:24;;;;;;;6.32;1.00;;;5.90;95.40;;;;;;5073422;28;20031;-39
2024/02/07 05:24:51;;;;;;;5.43;0.90;;;5.90;95.40;;;;;;5073277;28;20528;-38
2024/02/07 05:27:17;;;;;;;6.97;1.00;;;5.90;95.50;;;;;;5073305;28;20031;-39
2024/02/07 05:29:43;;;;;;;5.72;0.93;;;5.90;95.50;;;;;;5073445;28;20300;-40
2024/02/07 05:32:09;;;;;;;6.18;1.08;;;6.00;95.50;;;;;;5073015;28;20033;-36
2024/02/07 05:34:35;;;;;;;6.57;0.90;;;6.00;95.50;;;;;;5072791;28;20040;-40
2024/02/07 05:37:02;;;;;;;5.75;1.00;;;6.00;95.40;;;;;;5072318;28;20058;-40
2024/02/07 05:39:33;;;;;;;5.03;0.90;;;6.00;95.40;;;;;;5073095;28;20086;-39
2024/02/07 05:42:00;;;;;;;4.63;1.00;;;6.00;95.40;;;;;;5073094;28;20472;-39
2024/02/07 05:44:25;;;;;;;5.72;1.10;;;6.00;95.40;;;;;;5072591;28;20037;-40
2024/02/07 05:46:51;;;;;;;5.82;1.08;;;6.00;95.40;;;;;;5072904;28;20046;-39
2024/02/07 05:49:16;;;;;;;4.45;1.00;;;6.00;95.40;;;;;;5073036;28;20103;-40
2024/02/07 05:51:42;;;;;;;7.65;1.27;;;6.00;95.40;;;;;;5072552;28;20381;-37
2024/02/07 05:54:08;;;;;;;8.18;1.55;;;5.90;95.40;;;;;;5072554;28;20021;-40
2024/02/07 05:56:34;;;;;;;4.60;1.30;;;5.90;95.40;;;;;;5072394;28;20027;-37
2024/02/07 05:59:00;;;;;;;6.85;1.73;;;5.90;95.40;;;;;;5072510;28;20036;-39
2024/02/07 06:01:26;;;;;;;5.78;0.98;;;5.90;95.40;;;;;;5072285;28;20396;-40
2024/02/07 06:03:53;;;;;;;6.95;1.15;;;5.90;95.40;;;;;;5072226;28;20024;-40
2024/02/07 06:06:19;;;;;;;7.38;1.25;;;5.90;95.50;;;;;;5072264;28;20063;-40
2024/02/07 06:08:49;;;;;;;4.30;1.20;;;5.90;95.50;;;;;;5072534;28;20100;-41
2024/02/07 06:11:18;;;;;;;8.40;1.38;;;5.90;95.40;;;;;;5072587;28;20032;-40
2024/02/07 06:13:43;;;;;;;5.40;1.10;;;5.90;95.40;;;;;;5072350;28;20031;-37
2024/02/07 06:16:09;;;;;;;7.72;1.25;;;5.90;95.40;;;;;;5072545;28;20025;-38
2024/02/07 06:18:35;;;;;;;7.03;1.17;;;5.90;95.40;;;;;;5072316;28;20459;-40
2024/02/07 06:21:04;;;;;;;6.22;1.30;;;5.90;95.50;;;;;;5072181;28;20407;-38
2024/02/07 06:23:29;;;;;;;6.13;1.10;;;5.90;95.50;;;;;;5072014;28;20021;-37
2024/02/07 06:25:55;;;;;;;5.07;1.45;;;5.90;95.50;;;;;;5072135;28;20038;-39
2024/02/07 06:28:20;;;;;;;6.57;1.10;;;5.90;95.50;;;;;;5072017;28;20020;-38
2024/02/07 06:30:48;;;;;;;5.65;1.80;;;5.90;95.50;;;;;;5072565;28;20543;-40
2024/02/07 06:33:13;;;;;;;4.90;1.10;;;5.90;95.50;;;;;;5071866;28;20113;-40
2024/02/07 06:35:39;;;;;;;7.68;1.25;;;5.90;95.50;;;;;;5071767;28;20218;-39
2024/02/07 06:38:04;;;;;;;8.23;1.65;;;5.90;95.40;;;;;;5072276;28;20021;-41
2024/02/07 06:40:30;;;;;;;3.78;1.10;;;5.90;95.40;;;;;;5071894;28;20104;-39
2024/02/07 06:42:56;;;;;;;5.90;1.38;;;5.90;95.40;;;;;;5071905;28;20024;-40
2024/02/07 06:45:22;;;;;;;10.63;1.23;;;5.90;95.50;;;;;;5072149;28;20174;-38
2024/02/07 06:47:48;;;;;;;7.28;1.40;;;5.90;95.50;;;;;;5071682;28;20104;-41
2024/02/07 06:50:13;;;;;;;5.40;1.58;;;5.90;95.50;;;;;;5071388;28;20043;-40
2024/02/07 06:52:40;;;;;;;9.93;2.35;;;5.90;95.50;;;;;;5070231;28;20024;-40
2024/02/07 06:55:06;;;;;;;6.72;1.70;;;5.90;95.50;;;;;;5071985;28;20039;-41
2024/02/07 06:57:31;;;;;;;7.90;1.70;;;5.90;95.50;;;;;;5071606;28;20091;-40
2024/02/07 06:59:57;;;;;;;7.25;1.70;;;5.90;95.50;;;;;;5071996;28;20024;-40
2024/02/07 07:02:23;;;;;;;7.25;2.17;;;5.80;95.50;;;;;;5071761;28;20032;-37
2024/02/07 07:04:49;;;;;;;8.35;1.73;;;5.90;95.50;;;;;;5070223;28;20503;-39
2024/02/07 07:07:15;;;;;;;9.23;1.80;;;5.80;95.50;;;;;;5071775;28;20476;-41
2024/02/07 07:09:41;;;;;;;7.68;1.75;;;5.80;95.50;;;;;;5071919;28;20072;-40
2024/02/07 07:12:06;;;;;;;8.90;1.63;;;5.80;95.50;;;;;;5071684;28;20039;-40
2024/02/07 07:14:32;;;;;;;7.20;1.90;;;5.80;95.50;;;;;;5071699;28;20021;-39
2024/02/07 07:16:57;;;;;;;5.38;1.48;;;5.80;95.50;;;;;;5071427;28;20021;-40
2024/02/07 07:19:23;;;;;;;7.20;1.70;;;5.80;95.60;;;;;;5070248;28;20017;-40
2024/02/07 07:21:49;;;;;;;4.03;1.55;;;5.80;95.60;;;;;;5070383;28;20483;-39
2024/02/07 07:24:14;;;;;;;8.30;1.50;;;5.80;95.60;;;;;;5071300;28;20067;-39
2024/02/07 07:26:40;;;;;;;4.95;1.85;;;5.90;95.60;;;;;;5071409;28;20035;-38
2024/02/07 07:29:05;;;;;;;5.70;1.73;;;5.90;95.60;;;;;;5071495;28;20551;-41
2024/02/07 07:31:34;;;;;;;6.10;1.75;;;5.90;95.60;;;;;;5071347;28;20388;-37
2024/02/07 07:34:00;;;;;;;8.73;2.28;;;6.00;95.60;;;;;;5071379;28;20104;-41
2024/02/07 07:36:27;;;;;;;5.07;1.83;;;6.00;95.60;;;;;;5071260;28;20150;-41
2024/02/07 07:38:53;;;;;;;8.43;2.05;;;6.00;95.60;;;;;;5071250;28;20020;-38
2024/02/07 07:41:19;;;;;;;9.02;2.70;;;6.10;95.60;;;;;;5071535;28;20059;-39
2024/02/07 07:43:44;;;;;;;7.93;2.35;;;6.10;95.60;;;;;;5071572;28;20053;-39
2024/02/07 07:46:10;;;;;;;6.00;2.33;;;6.10;95.60;;;;;;5071230;28;20021;-40
2024/02/07 07:48:37;;;;;;;9.32;1.85;;;6.10;95.60;;;;;;5071409;28;20137;-41
2024/02/07 07:51:06;;;;;;;7.78;1.85;;;6.20;95.60;;;;;;5071099;28;20020;-39
2024/02/07 07:53:32;;;;;;;9.65;2.25;;;6.20;95.60;;;;;;5071404;28;20415;-39
2024/02/07 07:55:57;;;;;;;10.23;2.03;;;6.20;95.60;;;;;;5071145;28;20112;-41
2024/02/07 07:58:23;;;;;;;7.40;1.92;;;6.20;95.50;;;;;;5071300;28;20135;-40
2024/02/07 08:00:48;;;;;;;9.48;3.13;;;6.20;95.50;;;;;;5073075;28;20021;-41
2024/02/07 08:03:14;;;;;;;7.97;2.50;;;6.20;95.50;;;;;;5074643;28;20024;-37
2024/02/07 08:05:41;;;;;;;6.13;2.35;;;6.20;95.50;;;;;;5074703;28;20388;-40
2024/02/07 08:08:07;;;;;;;7.18;2.17;;;6.20;95.50;;;;;;5074894;28;20430;-41
2024/02/07 08:10:34;;;;;;;8.48;1.92;;;6.20;95.50;;;;;;5074455;28;20024;-40
2024/02/07 08:13:00;;;;;;;10.60;2.50;;;6.20;95.50;;;;;;5074574;28;20047;-49
2024/02/07 08:15:26;;;;;;;9.75;2.50;;;6.20;95.50;;;;;;5074832;28;20111;-41
2024/02/07 08:17:51;;;;;;;9.00;2.28;;;6.20;95.50;;;;;;5074514;28;20050;-41
2024/02/07 08:20:22;;;;;;;8.98;2.53;;;6.20;95.50;;;;;;5074582;28;20021;-42
2024/02/07 08:22:50;;;;;;;8.55;2.45;;;6.20;95.40;;;;;;5074198;28;20035;-41
2024/02/07 08:25:16;;;;;;;5.15;1.98;;;6.30;95.60;;;;;;5074639;28;20476;-41
2024/02/07 08:27:41;;;;;;;7.00;1.85;;;6.30;95.50;;;;;;5074572;28;20158;-37
2024/02/07 08:30:07;;;;;;;5.50;1.80;;;6.30;95.40;;;;;;5074587;28;20071;-41
2024/02/07 08:32:33;;;;;;;7.97;2.00;;;6.30;95.40;;;;;;5074130;28;20477;-41
2024/02/07 08:34:59;;;;;;;4.85;1.80;;;6.30;95.40;;;;;;5074076;28;20044;-41
2024/02/07 08:37:28;;;;;;;5.25;2.00;;;6.30;95.50;;;;;;5074104;28;20033;-39
2024/02/07 08:39:54;;;;;;;7.80;1.90;;;6.30;95.50;;;;;;5074325;28;20108;-40
2024/02/07 08:42:19;;;;;;;7.60;2.17;;;6.30;95.50;;;;;;5074302;28;20064;-39
2024/02/07 08:44:45;;;;;;;6.88;1.83;;;6.40;95.50;;;;;;5073755;28;20037;-40
2024/02/07 08:47:11;;;;;;;5.75;2.00;;;6.40;95.40;;;;;;5074171;28;20029;-45
2024/02/07 08:49:36;;;;;;;7.07;2.13;;;6.40;95.40;;;;;;5073875;28;20036;-41
2024/02/07 08:52:02;;;;;;;9.30;2.22;;;6.40;95.40;;;;;;5073929;28;20029;-38
2024/02/07 08:54:28;;;;;;;11.88;2.50;;;6.40;95.40;;;;;;5073819;28;20027;-41
2024/02/07 08:56:53;;;;;;;9.25;2.15;;;6.40;95.40;;;;;;5074018;28;20032;-41
2024/02/07 08:59:19;;;;;;;9.43;2.10;;;6.40;95.40;;;;;;5073860;28;20024;-42
2024/02/07 09:01:44;;;;;;;11.15;2.45;;;6.40;95.40;;;;;;5073932;28;20067;-39
2024/02/07 09:04:10;;;;;;;8.73;2.30;;;6.40;95.40;;;;;;5073654;28;20086;-40
2024/02/07 09:06:36;;;;;;;7.57;2.55;;;6.40;95.30;;;;;;5073514;28;20357;-41
2024/02/07 09:09:02;;;;;;;12.70;2.40;;;6.40;95.40;;;;;;5074013;28;20032;-40
2024/02/07 09:11:31;;;;;;;10.13;2.50;;;6.40;95.30;;;;;;5072976;28;20541;-41
2024/02/07 09:13:57;;;;;;;6.63;2.42;;;6.40;95.40;;;;;;5073560;28;20024;-41
2024/02/07 09:16:22;;;;;;;9.75;3.05;;;6.40;95.40;;;;;;5073360;28;20407;-40
2024/02/07 09:18:48;;;;;;;7.90;2.45;;;6.50;95.40;;;;;;5073528;28;20127;-41
2024/02/07 09:21:17;;;;;;;7.90;2.13;;;6.50;95.40;;;;;;5073387;28;20103;-42
2024/02/07 09:23:44;;;;;;;7.75;2.72;;;6.50;95.40;;;;;;5073255;28;20056;-39
2024/02/07 09:26:09;;;;;;;8.45;2.58;;;6.60;95.40;;;;;;5073368;28;20032;-45
2024/02/07 09:28:35;;;;;;;10.63;2.80;;;6.60;95.30;;;;;;5073433;28;20090;-41
2024/02/07 09:31:00;;;;;;;12.10;2.60;;;6.60;95.20;;;;;;5071979;28;20365;-43
2024/02/07 09:33:26;;;;;;;35.35;3.33;;;6.60;95.20;;;;;;5072969;28;20036;-45
2024/02/07 09:35:51;;;;;;;10.48;2.78;;;6.60;95.20;;;;;;5072971;28;20484;-41
2024/02/07 09:38:21;;;;;;;9.30;2.90;;;6.70;95.30;;;;;;5072972;28;20024;-41
2024/02/07 09:40:51;;;;;;;7.18;2.10;;;6.70;95.30;;;;;;5073330;28;20114;-41
2024/02/07 09:43:17;;;;;;;7.88;2.30;;;6.80;95.30;;;;;;5072772;28;20028;-42
2024/02/07 09:45:45;;;;;;;7.97;2.63;;;6.80;95.20;;;;;;5072802;28;20040;-39
2024/02/07 09:48:21;;;;;;;13.32;2.88;;;6.90;95.20;;;;;;5072805;28;20496;-41
2024/02/07 09:50:48;;;;;;;8.73;2.60;;;6.90;95.10;;;;;;5072959;28;20078;-41
2024/02/07 09:53:14;;;;;;;14.50;2.53;;;6.90;95.00;;;;;;5072672;28;20028;-41
2024/02/07 09:55:40;;;;;;;10.20;2.58;;;6.90;95.00;;;;;;5073053;28;20040;-40
2024/02/07 09:58:08;;;;;;;12.02;2.70;;;6.90;95.00;;;;;;5072891;28;20028;-41
2024/02/07 10:00:35;;;;;;;12.15;2.38;;;7.00;95.00;;;;;;5072728;28;20403;-38
2024/02/07 10:03:05;;;;;;;7.60;2.00;;;7.00;95.00;;;;;;5071050;28;20047;-39
2024/02/07 10:05:33;;;;;;;9.75;2.50;;;7.00;95.00;;;;;;5072348;28;20039;-38
2024/02/07 10:08:00;;;;;;;12.80;2.53;;;7.10;95.00;;;;;;5071437;28;20024;-41
2024/02/07 10:10:26;;;;;;;10.35;2.83;;;7.10;94.90;;;;;;5072266;28;20036;-40
2024/02/07 10:12:56;;;;;;;12.02;2.25;;;7.10;95.00;;;;;;5072202;28;20032;-39
2024/02/07 10:15:25;;;;;;;8.80;2.20;;;7.20;94.90;;;;;;5072572;28;20554;-41
2024/02/07 10:17:51;;;;;;;8.45;2.58;;;7.20;94.90;;;;;;5072185;28;20033;-41
2024/02/07 10:20:17;;;;;;;8.25;2.05;;;7.20;94.90;;;;;;5072205;28;20029;-42
2024/02/07 10:22:43;;;;;;;7.78;2.20;;;7.20;94.80;;;;;;5072012;28;20033;-42
2024/02/07 10:25:13;;;;;;;10.85;2.20;;;7.20;94.80;;;;;;5072375;28;20025;-42
2024/02/07 10:27:40;;;;;;;10.13;2.42;;;7.30;94.80;;;;;;5072146;28;20032;-42
2024/02/07 10:30:08;;;;;;;10.18;1.98;;;7.20;94.80;;;;;;5072104;28;20039;-40
2024/02/07 10:32:38;;;;;;;10.50;2.20;;;7.20;94.80;;;;;;5071881;28;20028;-40
2024/02/07 10:35:10;;;;;;;11.57;2.00;;;7.30;94.80;;;;;;5072191;28;20049;-39
2024/02/07 10:37:42;;;;;;;8.85;2.15;;;7.30;94.80;;;;;;5072178;28;20048;-43
2024/02/07 10:40:10;;;;;;;10.02;2.22;;;7.30;94.80;;;;;;5072079;28;20113;-42
2024/02/07 10:42:36;;;;;;;8.82;2.60;;;7.40;94.70;;;;;;5071949;28;20503;-38
2024/02/07 10:45:03;;;;;;;9.63;1.95;;;7.40;94.70;;;;;;5071871;28;20041;-40
2024/02/07 10:47:30;;;;;;;6.43;1.98;;;7.40;94.70;;;;;;5072035;28;20020;-40
2024/02/07 10:49:56;;;;;;;11.82;2.35;;;7.50;94.60;;;;;;5071880;28;20024;-39
2024/02/07 10:52:21;;;;;;;11.70;2.10;;;7.50;94.60;;;;;;5071086;28;20123;-39
2024/02/07 10:54:47;;;;;;;9.63;2.35;;;7.50;94.50;;;;;;5071523;28;20056;-41
2024/02/07 10:57:14;;;;;;;10.52;2.25;;;7.50;94.50;;;;;;5071915;28;20107;-40
2024/02/07 10:59:41;;;;;;;9.95;2.03;;;7.50;94.50;;;;;;5071866;28;20032;-41
2024/02/07 11:02:15;;;;;;;10.23;2.00;;;7.50;94.50;;;;;;5071497;28;20037;-41
2024/02/07 11:04:43;;;;;;;12.35;2.45;;;7.50;94.50;;;;;;5071658;28;20067;-39
2024/02/07 11:07:13;;;;;;;10.70;2.00;;;7.50;94.40;;;;;;5071694;28;20391;-41
2024/02/07 11:09:42;;;;;;;6.60;1.48;;;7.50;94.40;;;;;;5071850;28;20040;-41
2024/02/07 11:12:09;;;;;;;7.95;2.03;;;7.60;94.40;;;;;;5071421;28;20107;-39
2024/02/07 11:14:36;;;;;;;12.52;1.95;;;7.60;94.30;;;;;;5071474;28;20111;-38
2024/02/07 11:17:02;;;;;;;11.55;2.00;;;7.60;94.20;;;;;;5071717;28;20385;-39
2024/02/07 11:19:28;;;;;;;12.73;2.00;;;7.50;94.10;;;;;;5071492;28;20028;-40
2024/02/07 11:21:55;;;;;;;10.02;2.05;;;7.50;94.20;;;;;;5070256;28;20035;-36
2024/02/07 11:24:22;;;;;;;8.73;2.00;;;7.50;94.20;;;;;;5071552;28;20039;-41
2024/02/07 11:26:49;;;;;;;9.77;2.00;;;7.60;94.20;;;;;;5071334;28;20393;-48
2024/02/07 11:29:15;;;;;;;8.90;1.92;;;7.60;94.20;;;;;;5071689;28;20039;-40
2024/02/07 11:31:43;;;;;;;14.00;2.78;;;7.60;94.20;;;;;;5071420;28;20028;-39
2024/02/07 11:34:08;;;;;;;10.38;2.03;;;7.60;94.00;;;;;;5071286;28;20052;-40
2024/02/07 11:36:34;;;;;;;9.50;1.80;;;7.60;93.90;;;;;;5074734;28;20024;-39
2024/02/07 11:39:00;;;;;;;10.50;1.80;;;7.60;93.80;;;;;;5075488;28;20104;-40
2024/02/07 11:41:27;;;;;;;10.68;2.08;;;7.50;93.20;;;;;;5075321;28;20025;-40
2024/02/07 11:44:02;;;;;;;9.65;1.92;;;7.40;93.20;;;;;;5074961;28;20050;-40
2024/02/07 11:46:27;;;;;;;9.73;1.55;;;7.40;93.20;;;;;;5075178;28;20109;-41
2024/02/07 11:48:53;;;;;;;13.55;2.17;;;7.30;93.30;;;;;;5075231;28;20070;-40
2024/02/07 11:51:23;;;;;;;14.68;2.00;;;7.30;93.20;;;;;;5074792;28;20099;-41
2024/02/07 11:53:49;;;;;;;8.85;1.63;;;7.30;93.10;;;;;;5073987;28;20024;-41
2024/02/07 11:56:20;;;;;;;7.97;1.98;;;7.30;93.30;;;;;;5075125;28;20055;-40
2024/02/07 11:58:49;;;;;;;12.32;2.83;;;7.30;93.40;;;;;;5075203;28;20434;-40
2024/02/07 12:01:16;;;;;;;11.70;1.70;;;7.40;93.40;;;;;;5074693;28;20028;-40
2024/02/07 12:03:41;;;;;;;8.40;1.52;;;7.40;93.20;;;;;;5074650;28;20366;-41
2024/02/07 12:06:09;;;;;;;8.38;1.77;;;7.50;93.20;;;;;;5074870;28;20024;-40
2024/02/07 12:08:36;;;;;;;11.27;1.65;;;7.50;93.10;;;;;;5074692;28;20020;-39
2024/02/07 12:11:04;;;;;;;12.55;1.80;;;7.50;92.90;;;;;;5074915;28;20070;-41
2024/02/07 12:13:31;;;;;;;12.75;1.90;;;7.50;92.50;;;;;;5074744;28;20036;-41
2024/02/07 12:16:04;;;;;;;14.38;2.20;;;7.50;92.50;;;;;;5074714;28;20028;-40
2024/02/07 12:18:30;;;;;;;10.95;2.20;;;7.50;92.50;;;;;;5074743;28;20032;-41
2024/02/07 12:21:02;;;;;;;10.38;1.70;;;7.50;92.60;;;;;;5074793;28;20441;-40
2024/02/07 12:23:29;;;;;;;7.10;1.60;;;7.60;92.40;;;;;;5074261;28;20052;-41
2024/02/07 12:25:58;;;;;;;12.10;1.85;;;7.60;92.00;;;;;;5074370;28;20087;-41
2024/02/07 12:28:28;;;;;;;10.68;1.98;;;7.60;92.10;;;;;;5074568;28;20032;-47
2024/02/07 12:31:03;;;;;;;7.70;1.50;;;7.60;92.10;;;;;;5074555;28;20475;-39
2024/02/07 12:33:29;;;;;;;8.43;1.60;;;7.70;92.10;;;;;;5074454;28;20067;-40
2024/02/07 12:35:56;;;;;;;7.03;2.05;;;7.70;92.30;;;;;;5074102;28;20544;-40
2024/02/07 12:38:22;;;;;;;12.73;1.70;;;7.90;92.30;;;;;;5074237;28;20034;-39
2024/02/07 12:40:50;;;;;;;5.72;1.65;;;8.00;92.30;;;;;;5074157;28;20028;-41
2024/02/07 12:43:22;;;;;;;10.40;2.00;;;8.10;92.20;;;;;;5073792;28;20041;-39
2024/02/07 12:45:53;;;;;;;9.98;2.10;;;8.10;92.00;;;;;;5074359;28;20025;-41
2024/02/07 12:48:21;;;;;;;9.60;1.55;;;8.20;92.00;;;;;;5073089;28;20028;-40
2024/02/07 12:50:47;;;;;;;13.18;1.83;;;8.20;92.00;;;;;;5073844;28;20025;-39
2024/02/07 12:53:12;;;;;;;9.20;1.50;;;8.20;92.00;;;;;;5072582;28;20035;-39
2024/02/07 12:55:38;;;;;;;8.38;1.67;;;8.30;92.00;;;;;;5072546;28;20032;-40
2024/02/07 12:58:04;;;;;;;5.85;1.50;;;8.30;91.90;;;;;;5073836;28;20466;-40
2024/02/07 13:00:30;;;;;;;7.53;2.47;;;8.40;91.90;;;;;;5074152;28;20571;-39
2024/02/07 13:02:57;;;;;;;8.30;1.67;;;8.40;91.90;;;;;;5073842;28;20020;-40
2024/02/07 13:05:22;;;;;;;12.75;1.77;;;8.40;91.80;;;;;;5074039;28;20067;-38
2024/02/07 13:07:50;;;;;;;6.57;1.40;;;8.40;91.80;;;;;;5073601;28;20542;-40
2024/02/07 13:10:16;;;;;;;7.55;1.45;;;8.40;91.80;;;;;;5073745;28;20025;-38
2024/02/07 13:12:41;;;;;;;6.60;1.70;;;8.40;91.70;;;;;;5073437;28;20044;-39
2024/02/07 13:15:07;;;;;;;8.63;1.50;;;8.40;91.50;;;;;;5073426;28;20545;-40
2024/02/07 13:17:37;;;;;;;4.63;1.30;;;8.40;91.60;;;;;;5073317;28;20028;-40
2024/02/07 13:20:03;;;;;;;7.72;1.40;;;8.40;91.60;;;;;;5073775;28;20082;-38
2024/02/07 13:22:32;;;;;;;5.22;1.33;;;8.50;91.50;;;;;;5073577;28;20412;-41
2024/02/07 13:25:10;;;;;;;11.43;1.48;;;8.50;91.40;;;;;;5073235;28;20031;-40
2024/02/07 13:27:39;;;;;;;6.32;1.38;;;8.50;91.40;;;;;;5073215;28;20040;-38
2024/02/07 13:30:07;;;;;;;9.40;1.48;;;8.50;91.40;;;;;;5073565;28;20400;-40
2024/02/07 13:32:33;;;;;;;3.63;1.10;;;8.60;91.40;;;;;;5072956;28;20043;-39
2024/02/07 13:34:59;;;;;;;6.30;1.40;;;8.60;91.40;;;;;;5073032;28;20037;-39
2024/02/07 13:37:24;;;;;;;9.45;1.38;;;8.70;91.30;;;;;;5073284;28;20027;-38
2024/02/07 13:39:50;;;;;;;7.97;1.70;;;8.70;91.50;;;;;;5072925;28;20112;-41
2024/02/07 13:42:15;;;;;;;6.65;1.45;;;8.80;91.20;;;;;;5072883;28;20507;-39
2024/02/07 13:44:41;;;;;;;8.38;1.50;;;8.90;91.30;;;;;;5072691;28;20029;-40
2024/02/07 13:47:07;;;;;;;6.60;1.52;;;9.00;91.10;;;;;;5072971;28;20028;-38
2024/02/07 13:49:33;;;;;;;7.03;1.73;;;9.00;91.00;;;;;;5072676;28;20021;-37
2024/02/07 13:51:59;;;;;;;7.50;1.52;;;9.00;91.00;;;;;;5072535;28;20059;-39
2024/02/07 13:54:25;;;;;;;6.03;1.58;;;9.00;90.90;;;;;;5072930;28;20047;-40
2024/02/07 13:56:50;;;;;;;7.35;1.45;;;9.00;90.80;;;;;;5071368;28;20090;-40
2024/02/07 13:59:16;;;;;;;9.45;1.42;;;9.00;90.80;;;;;;5072353;28;20029;-38